Time;durP1;ratioP1;P1;durP2;ratioP2;P2;SDS_P1;SDS_P2;PMS_P1;PMS_P2;Temp;Humidity;BMP_temperature;BMP_pressure;BME280_temperature;BME280_humidity;BME280_pressure;Samples;Min_cycle;Max_cycle;Signal;HPM_P1;HPM_P2
2022/06/30 00:01:03;;;;;;;9.38;2.03;;;14.20;99.90;;;;;;5009239;28;20073;-69
2022/06/30 00:03:28;;;;;;;3.65;1.20;;;14.20;99.90;;;;;;5008232;28;20034;-71
2022/06/30 00:05:54;;;;;;;5.45;1.50;;;14.00;99.90;;;;;;5009183;28;20426;-70
2022/06/30 00:08:20;;;;;;;8.07;1.40;;;14.10;99.90;;;;;;5009471;28;20022;-69
2022/06/30 00:10:45;;;;;;;4.72;1.70;;;14.00;99.90;;;;;;5009996;28;20105;-69
2022/06/30 00:13:12;;;;;;;5.72;2.20;;;14.00;99.90;;;;;;5006808;28;20053;-68
2022/06/30 00:15:37;;;;;;;6.28;1.83;;;14.00;99.90;;;;;;5008925;28;20117;-68
2022/06/30 00:18:04;;;;;;;6.40;1.38;;;13.90;99.90;;;;;;5009313;28;20072;-67
2022/06/30 00:20:30;;;;;;;7.90;1.58;;;14.00;99.90;;;;;;5008650;28;20045;-68
2022/06/30 00:22:55;;;;;;;7.65;1.67;;;13.90;99.90;;;;;;5009607;28;20026;-67
2022/06/30 00:25:21;;;;;;;6.68;1.95;;;14.00;99.90;;;;;;5008573;28;20441;-67
2022/06/30 00:27:46;;;;;;;3.55;1.40;;;13.90;99.90;;;;;;5005893;28;20457;-66
2022/06/30 00:30:12;;;;;;;4.80;1.10;;;13.90;99.90;;;;;;5008737;28;20467;-65
2022/06/30 00:32:38;;;;;;;4.47;1.35;;;13.80;99.90;;;;;;5008326;28;20034;-67
2022/06/30 00:35:04;;;;;;;8.02;1.35;;;13.70;99.90;;;;;;5009808;28;20385;-67
2022/06/30 00:37:29;;;;;;;6.32;1.40;;;13.70;99.90;;;;;;5006966;28;20036;-66
2022/06/30 00:39:55;;;;;;;5.75;1.90;;;13.60;99.90;;;;;;5008859;28;20041;-66
2022/06/30 00:42:21;;;;;;;5.22;1.60;;;13.80;99.90;;;;;;5007085;28;20033;-67
2022/06/30 00:44:47;;;;;;;4.15;1.40;;;13.90;99.90;;;;;;5009432;28;20469;-67
2022/06/30 00:47:13;;;;;;;9.77;1.60;;;13.90;99.90;;;;;;5010354;28;20030;-67
2022/06/30 00:49:39;;;;;;;5.43;1.40;;;13.90;99.90;;;;;;5007916;28;20022;-67
2022/06/30 00:52:08;;;;;;;5.85;1.80;;;13.90;99.90;;;;;;5009635;28;20025;-67
2022/06/30 00:54:36;;;;;;;6.05;1.30;;;13.90;99.90;;;;;;5007845;28;20311;-67
2022/06/30 00:57:03;;;;;;;4.43;1.20;;;13.90;99.90;;;;;;5009669;28;20037;-65
2022/06/30 00:59:32;;;;;;;6.82;1.10;;;13.90;99.90;;;;;;5006831;28;20037;-66
2022/06/30 01:02:00;;;;;;;4.43;1.15;;;13.80;99.90;;;;;;5007587;28;20036;-66
2022/06/30 01:04:29;;;;;;;3.72;1.10;;;13.60;99.90;;;;;;5006884;28;20072;-67
2022/06/30 01:06:57;;;;;;;4.07;1.30;;;13.60;99.90;;;;;;5009553;28;20044;-67
2022/06/30 01:14:53;;;;;;;6.43;0.98;;;13.70;99.90;;;;;;5003230;28;20053;-64
2022/06/30 01:17:20;;;;;;;3.55;0.98;;;13.80;99.90;;;;;;5007470;28;20057;-63
2022/06/30 01:19:55;;;;;;;6.72;1.85;;;13.80;99.90;;;;;;5009531;28;20037;-64
2022/06/30 01:22:21;;;;;;;7.47;1.20;;;13.70;99.90;;;;;;5007353;28;20088;-64
2022/06/30 01:24:48;;;;;;;3.40;1.27;;;13.70;99.90;;;;;;5008247;28;20026;-64
2022/06/30 01:27:13;;;;;;;4.03;1.00;;;13.70;99.90;;;;;;5009019;28;20478;-64
2022/06/30 01:29:39;;;;;;;8.60;1.30;;;13.60;99.90;;;;;;5005852;28;20029;-65
2022/06/30 01:32:05;;;;;;;2.92;0.70;;;13.60;99.90;;;;;;5008793;28;20042;-64
2022/06/30 01:34:31;;;;;;;2.00;0.82;;;13.40;99.90;;;;;;5007455;28;20493;-65
2022/06/30 01:36:56;;;;;;;3.28;0.60;;;13.40;99.90;;;;;;5008486;28;20026;-65
2022/06/30 01:39:22;;;;;;;4.43;0.90;;;13.30;99.90;;;;;;5006644;28;20057;-65
2022/06/30 01:41:48;;;;;;;3.15;0.70;;;13.40;99.90;;;;;;5008560;28;20034;-65
2022/06/30 01:44:13;;;;;;;4.22;0.70;;;13.50;99.90;;;;;;5009677;28;20030;-65
2022/06/30 01:46:47;;;;;;;1.52;0.90;;;13.50;99.90;;;;;;5006511;28;20375;-65
2022/06/30 01:49:12;;;;;;;2.00;1.02;;;13.50;99.90;;;;;;5009069;28;20033;-65
2022/06/30 01:51:38;;;;;;;3.50;1.30;;;13.40;99.90;;;;;;5004544;28;20030;-65
2022/06/30 01:54:04;;;;;;;3.63;1.33;;;13.30;99.90;;;;;;5007714;28;21891;-65
2022/06/30 01:56:30;;;;;;;1.70;0.98;;;13.30;99.90;;;;;;5006671;28;20141;-65
2022/06/30 01:58:55;;;;;;;3.15;0.55;;;13.30;99.90;;;;;;5007498;28;20068;-64
2022/06/30 02:01:21;;;;;;;1.45;0.65;;;13.30;99.90;;;;;;5006769;28;20132;-64
2022/06/30 02:03:46;;;;;;;2.05;0.57;;;13.40;99.90;;;;;;5008663;28;20022;-64
2022/06/30 02:06:12;;;;;;;3.40;0.82;;;13.40;99.90;;;;;;5007920;28;20048;-64
2022/06/30 02:08:38;;;;;;;4.60;0.80;;;13.40;99.90;;;;;;5007524;28;20116;-64
2022/06/30 02:11:03;;;;;;;4.13;1.20;;;13.40;99.90;;;;;;5008373;28;20022;-63
2022/06/30 02:13:29;;;;;;;8.35;1.35;;;13.30;99.90;;;;;;5007554;28;20049;-64
2022/06/30 02:15:55;;;;;;;3.50;1.50;;;13.30;99.90;;;;;;5012901;28;20029;-63
2022/06/30 02:18:21;;;;;;;1.42;0.93;;;13.30;99.90;;;;;;5011259;28;20036;-63
2022/06/30 02:20:47;;;;;;;4.85;1.13;;;13.20;99.90;;;;;;5005757;28;20038;-64
2022/06/30 02:23:12;;;;;;;2.72;0.75;;;13.20;99.90;;;;;;5011125;28;20117;-63
2022/06/30 02:25:38;;;;;;;4.88;1.50;;;13.20;99.90;;;;;;5010086;28;20026;-64
2022/06/30 02:28:05;;;;;;;5.45;1.45;;;13.20;99.90;;;;;;5005914;28;20025;-64
2022/06/30 02:30:31;;;;;;;3.92;1.73;;;13.30;99.90;;;;;;5008111;28;20034;-64
2022/06/30 02:32:57;;;;;;;2.83;1.73;;;13.40;99.90;;;;;;5012204;28;20032;-64
2022/06/30 02:35:23;;;;;;;8.13;2.28;;;13.50;99.90;;;;;;5010289;28;20025;-64
2022/06/30 02:37:49;;;;;;;3.88;1.30;;;13.50;99.90;;;;;;5011074;28;20076;-63
2022/06/30 02:40:15;;;;;;;8.20;1.27;;;13.50;99.90;;;;;;5011373;28;20156;-64
2022/06/30 02:42:41;;;;;;;3.47;1.88;;;13.50;99.90;;;;;;5011491;28;20022;-64
2022/06/30 02:45:07;;;;;;;4.30;1.77;;;13.50;99.90;;;;;;5011409;28;20045;-64
2022/06/30 02:47:35;;;;;;;4.88;1.45;;;13.50;99.90;;;;;;5011182;28;20030;-65
2022/06/30 02:50:03;;;;;;;6.20;1.73;;;13.50;99.90;;;;;;5011368;28;20050;-64
2022/06/30 02:52:32;;;;;;;5.78;2.03;;;13.40;99.90;;;;;;5010351;28;20040;-65
2022/06/30 02:54:59;;;;;;;5.05;1.77;;;13.40;99.90;;;;;;5011681;28;20026;-65
2022/06/30 02:57:25;;;;;;;4.75;1.90;;;13.40;99.90;;;;;;5009658;28;20034;-64
2022/06/30 02:59:51;;;;;;;6.20;1.75;;;13.40;99.90;;;;;;5011043;28;20033;-64
2022/06/30 03:02:17;;;;;;;4.97;1.85;;;13.40;99.90;;;;;;5009193;28;20038;-63
2022/06/30 03:04:42;;;;;;;5.97;1.50;;;13.30;99.90;;;;;;5011538;28;20537;-64
2022/06/30 03:07:08;;;;;;;7.45;2.13;;;13.40;99.90;;;;;;5012015;28;20167;-63
2022/06/30 03:09:34;;;;;;;2.47;1.60;;;13.30;99.90;;;;;;5009138;28;22213;-64
2022/06/30 03:12:00;;;;;;;3.83;1.50;;;13.30;99.90;;;;;;5010152;28;20091;-64
2022/06/30 03:14:26;;;;;;;4.32;1.05;;;13.40;99.90;;;;;;5010251;28;20030;-63
2022/06/30 03:16:52;;;;;;;3.72;1.20;;;13.40;99.90;;;;;;5012242;28;20131;-63
2022/06/30 03:19:19;;;;;;;3.38;1.20;;;13.50;99.90;;;;;;5010576;28;20029;-63
2022/06/30 03:21:45;;;;;;;3.65;1.17;;;13.50;99.90;;;;;;5010611;28;20386;-63
2022/06/30 03:24:10;;;;;;;4.28;1.75;;;13.40;99.90;;;;;;5011259;28;20026;-64
2022/06/30 03:26:36;;;;;;;4.10;1.50;;;13.40;99.90;;;;;;5007255;28;20033;-65
2022/06/30 03:29:03;;;;;;;4.80;1.38;;;13.40;99.90;;;;;;5010761;28;20032;-65
2022/06/30 03:31:29;;;;;;;3.42;1.20;;;13.40;99.90;;;;;;5006924;28;20103;-66
2022/06/30 03:33:54;;;;;;;3.80;1.40;;;13.40;99.90;;;;;;5011098;28;20025;-66
2022/06/30 03:36:20;;;;;;;10.10;2.08;;;13.50;99.90;;;;;;5007809;28;20052;-65
2022/06/30 03:38:46;;;;;;;7.07;1.73;;;13.50;99.90;;;;;;5010630;28;20461;-65
2022/06/30 03:41:11;;;;;;;5.03;1.40;;;13.50;99.90;;;;;;5008480;28;20117;-65
2022/06/30 03:43:37;;;;;;;2.70;1.23;;;13.50;99.90;;;;;;5008828;28;20026;-65
2022/06/30 03:46:03;;;;;;;3.30;0.90;;;13.50;99.90;;;;;;5009118;28;20033;-65
2022/06/30 03:48:28;;;;;;;5.63;1.30;;;13.50;99.90;;;;;;5004088;28;20056;-64
2022/06/30 03:50:54;;;;;;;7.85;1.77;;;13.50;99.90;;;;;;5005576;28;20495;-65
2022/06/30 03:53:19;;;;;;;6.35;1.27;;;13.50;99.90;;;;;;5003083;28;20544;-65
2022/06/30 03:55:45;;;;;;;3.97;1.80;;;13.40;99.90;;;;;;5009778;28;20446;-65
2022/06/30 03:58:11;;;;;;;3.97;1.25;;;13.30;99.90;;;;;;5004815;28;20037;-64
2022/06/30 04:00:37;;;;;;;4.43;1.13;;;13.30;99.90;;;;;;5005255;28;20054;-64
2022/06/30 04:03:03;;;;;;;2.95;1.00;;;13.30;99.90;;;;;;5010583;28;20486;-64
2022/06/30 04:05:29;;;;;;;3.17;1.52;;;13.30;99.90;;;;;;5009597;28;20018;-64
2022/06/30 04:07:55;;;;;;;4.50;1.35;;;13.30;99.90;;;;;;5004327;28;20041;-64
2022/06/30 04:10:21;;;;;;;4.15;1.05;;;13.20;99.90;;;;;;5006667;28;20030;-64
2022/06/30 04:12:46;;;;;;;3.33;1.05;;;13.30;99.90;;;;;;5008153;28;20088;-65
2022/06/30 04:15:12;;;;;;;2.58;0.90;;;13.30;99.90;;;;;;5003531;28;20397;-65
2022/06/30 04:17:38;;;;;;;4.65;1.52;;;13.40;99.90;;;;;;5001479;28;20077;-65
2022/06/30 04:20:05;;;;;;;6.80;1.70;;;13.40;99.90;;;;;;5008292;28;20088;-64
2022/06/30 04:22:31;;;;;;;5.80;1.80;;;13.40;99.90;;;;;;5001218;28;20029;-65
2022/06/30 04:24:56;;;;;;;7.43;1.67;;;13.40;99.90;;;;;;5007001;28;20028;-64
2022/06/30 04:27:22;;;;;;;4.82;1.55;;;13.50;99.90;;;;;;5007141;28;20030;-64
2022/06/30 04:29:48;;;;;;;6.78;1.55;;;13.50;99.90;;;;;;4997354;28;20073;-67
2022/06/30 04:34:57;;;;;;;7.03;1.27;;;13.60;99.90;;;;;;5003241;28;20029;-67
2022/06/30 04:37:23;;;;;;;5.47;2.00;;;13.60;99.90;;;;;;5008506;28;20026;-67
2022/06/30 04:39:49;;;;;;;8.00;1.50;;;13.60;99.90;;;;;;5001942;28;20026;-68
2022/06/30 04:42:15;;;;;;;4.95;1.20;;;13.60;99.90;;;;;;5005063;28;20038;-69
2022/06/30 04:44:41;;;;;;;5.65;1.95;;;13.50;99.90;;;;;;4991474;28;20026;-68
2022/06/30 04:47:07;;;;;;;5.35;1.55;;;13.50;99.90;;;;;;5007656;28;20030;-68
2022/06/30 04:49:33;;;;;;;6.63;1.70;;;13.60;99.90;;;;;;5004803;28;20104;-66
2022/06/30 04:51:58;;;;;;;7.50;1.73;;;13.60;99.90;;;;;;5003340;28;20070;-66
2022/06/30 04:54:24;;;;;;;6.78;1.85;;;13.60;99.90;;;;;;5005518;28;20053;-66
2022/06/30 04:56:50;;;;;;;5.80;1.50;;;13.60;99.90;;;;;;5003518;28;20064;-66
2022/06/30 04:59:16;;;;;;;7.45;1.50;;;13.60;99.90;;;;;;5006829;28;20033;-66
2022/06/30 05:01:42;;;;;;;6.63;1.77;;;13.60;99.90;;;;;;5012009;28;20041;-65
2022/06/30 05:04:07;;;;;;;4.22;1.48;;;13.60;99.90;;;;;;5009666;28;20156;-65
2022/06/30 05:06:33;;;;;;;10.70;4.60;;;13.60;99.90;;;;;;5007774;28;20037;-64
2022/06/30 05:08:58;;;;;;;8.60;1.63;;;13.60;99.90;;;;;;5009159;28;20026;-64
2022/06/30 05:11:24;;;;;;;4.35;1.42;;;13.50;99.90;;;;;;5003074;28;20033;-65
2022/06/30 05:13:50;;;;;;;3.38;1.60;;;13.60;99.90;;;;;;5001152;28;20462;-64
2022/06/30 05:16:15;;;;;;;3.50;1.42;;;13.60;99.90;;;;;;5000370;28;20026;-65
2022/06/30 05:18:41;;;;;;;6.88;1.52;;;13.70;99.90;;;;;;5009176;28;20498;-63
2022/06/30 05:21:07;;;;;;;3.60;1.17;;;13.70;99.90;;;;;;4998788;28;20129;-64
2022/06/30 05:23:33;;;;;;;8.05;1.67;;;13.70;99.90;;;;;;5007467;28;20026;-66
2022/06/30 05:28:43;;;;;;;9.02;1.55;;;13.90;99.90;;;;;;5008106;28;20032;-64
2022/06/30 05:31:08;;;;;;;7.65;1.50;;;13.90;99.90;;;;;;5005285;28;20045;-62
2022/06/30 05:33:37;;;;;;;14.57;2.03;;;13.90;99.90;;;;;;5009401;28;20470;-63
2022/06/30 05:36:03;;;;;;;8.35;1.45;;;13.90;99.90;;;;;;5004509;28;20030;-63
2022/06/30 05:38:28;;;;;;;6.72;1.85;;;13.90;99.90;;;;;;5003567;28;20032;-64
2022/06/30 05:40:54;;;;;;;8.15;1.90;;;14.00;99.90;;;;;;5001666;28;20402;-64
2022/06/30 05:43:20;;;;;;;8.40;2.05;;;14.00;99.90;;;;;;4994733;28;20474;-63
2022/06/30 05:45:46;;;;;;;3.45;1.15;;;14.10;99.90;;;;;;5008725;28;20084;-64
2022/06/30 05:48:12;;;;;;;8.48;1.52;;;14.10;99.90;;;;;;5004514;28;20371;-64
2022/06/30 05:50:38;;;;;;;9.30;2.05;;;14.10;99.90;;;;;;5012807;28;20036;-64
2022/06/30 05:53:03;;;;;;;4.32;1.05;;;14.10;99.90;;;;;;5005594;28;20109;-64
2022/06/30 05:55:29;;;;;;;3.45;1.00;;;14.10;99.90;;;;;;5004308;28;20431;-65
2022/06/30 05:57:57;;;;;;;7.55;1.35;;;14.20;99.90;;;;;;5014680;28;20018;-65
2022/06/30 06:00:25;;;;;;;7.75;1.48;;;14.30;99.90;;;;;;5008553;28;20500;-65
2022/06/30 06:02:51;;;;;;;11.60;2.42;;;14.30;99.90;;;;;;5010214;28;20038;-64
2022/06/30 06:05:18;;;;;;;8.88;1.90;;;14.40;99.90;;;;;;5006006;28;20033;-63
2022/06/30 06:07:44;;;;;;;6.82;1.13;;;14.40;99.90;;;;;;5009432;28;20042;-63
2022/06/30 06:10:10;;;;;;;4.43;1.10;;;14.40;99.90;;;;;;5011619;28;20030;-63
2022/06/30 06:12:37;;;;;;;5.40;1.00;;;14.40;99.90;;;;;;5008284;28;20033;-64
2022/06/30 06:15:03;;;;;;;8.50;1.50;;;14.30;99.90;;;;;;5009508;28;20486;-64
2022/06/30 06:17:30;;;;;;;5.20;1.58;;;14.30;99.90;;;;;;5006653;28;20423;-64
2022/06/30 06:19:56;;;;;;;7.00;1.60;;;14.40;99.90;;;;;;5009971;28;20034;-64
2022/06/30 06:22:22;;;;;;;5.47;1.52;;;14.50;99.90;;;;;;5003269;28;20125;-64
2022/06/30 06:24:47;;;;;;;5.95;1.70;;;14.50;99.90;;;;;;5014476;28;20415;-64
2022/06/30 06:27:13;;;;;;;7.38;2.55;;;14.70;99.90;;;;;;5004957;28;20446;-62
2022/06/30 06:29:39;;;;;;;6.47;1.60;;;14.70;99.90;;;;;;5013923;28;20058;-63
2022/06/30 06:32:05;;;;;;;6.07;1.58;;;14.70;99.90;;;;;;5004909;28;20034;-63
2022/06/30 06:34:31;;;;;;;10.98;1.80;;;14.70;99.90;;;;;;5002490;28;20034;-63
2022/06/30 06:36:56;;;;;;;11.07;7.80;;;14.70;99.90;;;;;;5012162;28;20161;-63
2022/06/30 06:39:22;;;;;;;6.75;1.10;;;14.80;99.90;;;;;;5013756;28;20068;-63
2022/06/30 06:41:47;;;;;;;5.30;1.05;;;14.80;99.90;;;;;;5011452;28;20038;-63
2022/06/30 06:44:13;;;;;;;5.30;1.45;;;14.70;99.90;;;;;;5012850;28;20014;-62
2022/06/30 06:46:39;;;;;;;6.25;1.88;;;14.80;99.90;;;;;;5003703;28;20473;-63
2022/06/30 06:49:07;;;;;;;4.65;1.48;;;14.90;99.90;;;;;;5014699;28;20026;-63
2022/06/30 06:51:33;;;;;;;8.40;1.70;;;14.90;99.90;;;;;;5011556;28;20030;-63
2022/06/30 06:53:59;;;;;;;7.45;1.63;;;15.00;99.90;;;;;;5011639;28;20036;-63
2022/06/30 06:56:25;;;;;;;6.45;1.50;;;15.00;99.90;;;;;;5005735;28;20030;-64
2022/06/30 06:58:51;;;;;;;11.75;2.28;;;15.00;99.90;;;;;;5007319;28;20497;-63
2022/06/30 07:01:17;;;;;;;6.47;1.38;;;15.00;99.90;;;;;;5002468;28;20060;-63
2022/06/30 07:03:42;;;;;;;14.02;1.40;;;15.00;99.90;;;;;;5009113;28;20025;-64
2022/06/30 07:06:08;;;;;;;5.88;1.30;;;15.00;99.90;;;;;;5012863;28;20042;-64
2022/06/30 07:08:34;;;;;;;9.05;1.27;;;15.00;99.90;;;;;;5004966;28;20041;-64
2022/06/30 07:11:02;;;;;;;4.63;1.40;;;14.90;99.90;;;;;;5008250;28;20481;-59
2022/06/30 07:13:28;;;;;;;5.63;1.60;;;15.00;99.90;;;;;;5001081;28;20398;-64
2022/06/30 07:15:54;;;;;;;7.05;1.27;;;14.90;99.90;;;;;;5008263;28;20541;-63
2022/06/30 07:18:20;;;;;;;4.50;0.95;;;14.90;99.90;;;;;;5004507;28;20030;-62
2022/06/30 07:20:46;;;;;;;4.28;1.40;;;14.80;99.90;;;;;;5003978;28;20133;-64
2022/06/30 07:23:12;;;;;;;7.50;1.52;;;14.80;99.90;;;;;;5003707;28;20432;-64
2022/06/30 07:25:38;;;;;;;6.18;1.38;;;14.90;99.90;;;;;;5006738;28;20030;-64
2022/06/30 07:28:04;;;;;;;8.60;1.30;;;14.90;99.90;;;;;;5006937;28;20049;-63
2022/06/30 07:30:30;;;;;;;5.55;1.02;;;14.90;99.90;;;;;;5008705;28;20042;-63
2022/06/30 07:32:56;;;;;;;4.10;1.17;;;14.90;99.90;;;;;;5006819;28;20391;-64
2022/06/30 07:35:21;;;;;;;4.78;1.50;;;15.00;99.90;;;;;;5008523;28;20057;-64
2022/06/30 07:37:47;;;;;;;7.50;2.03;;;15.20;99.90;;;;;;5005872;28;20113;-64
2022/06/30 07:40:14;;;;;;;6.75;1.50;;;15.60;99.90;;;;;;5010285;28;20069;-64
2022/06/30 07:42:40;;;;;;;3.28;1.42;;;15.80;99.90;;;;;;5004087;28;20034;-64
2022/06/30 07:45:07;;;;;;;8.50;1.83;;;16.10;99.90;;;;;;5005424;28;20022;-64
2022/06/30 07:47:33;;;;;;;7.38;1.20;;;16.40;99.90;;;;;;5001141;28;20191;-64
2022/06/30 07:49:58;;;;;;;7.43;1.27;;;16.50;99.90;;;;;;5004758;28;20049;-63
2022/06/30 07:52:24;;;;;;;7.50;2.05;;;16.60;99.90;;;;;;5009148;28;20483;-64
2022/06/30 07:54:51;;;;;;;10.15;1.30;;;16.50;99.90;;;;;;5005843;28;20510;-63
2022/06/30 07:57:20;;;;;;;8.35;2.45;;;16.50;99.90;;;;;;4999761;28;20467;-63
2022/06/30 07:59:46;;;;;;;6.93;1.13;;;16.50;99.90;;;;;;5008135;28;20083;-63
2022/06/30 08:02:12;;;;;;;10.48;2.47;;;16.50;99.90;;;;;;5007803;28;20344;-64
2022/06/30 08:04:39;;;;;;;10.32;1.15;;;16.50;99.90;;;;;;5008199;28;20040;-64
2022/06/30 08:07:05;;;;;;;4.78;1.30;;;16.50;99.90;;;;;;5004283;28;20026;-63
2022/06/30 08:09:33;;;;;;;2.67;0.73;;;16.60;99.90;;;;;;5005323;28;20112;-64
2022/06/30 08:11:59;;;;;;;7.40;1.05;;;16.70;99.90;;;;;;5008854;28;20493;-62
2022/06/30 08:14:24;;;;;;;6.45;0.95;;;16.80;99.90;;;;;;5006401;28;20110;-61
2022/06/30 08:16:50;;;;;;;5.47;0.70;;;17.10;99.90;;;;;;5005856;28;20032;-62
2022/06/30 08:19:19;;;;;;;4.40;1.42;;;17.20;99.90;;;;;;5009471;28;20025;-62
2022/06/30 08:21:45;;;;;;;3.42;1.15;;;17.40;99.90;;;;;;5007555;28;20076;-64
2022/06/30 08:24:11;;;;;;;4.80;0.60;;;17.40;99.90;;;;;;5004920;28;20029;-67
2022/06/30 08:26:36;;;;;;;4.40;0.70;;;17.50;99.90;;;;;;5007011;28;20048;-63
2022/06/30 08:29:02;;;;;;;8.82;0.90;;;17.60;99.90;;;;;;5009430;28;20030;-64
2022/06/30 08:31:28;;;;;;;2.70;0.68;;;17.80;99.90;;;;;;5001930;28;20053;-64
2022/06/30 08:33:54;;;;;;;6.03;1.02;;;17.60;99.90;;;;;;5006459;28;20113;-63
2022/06/30 08:36:20;;;;;;;4.50;0.82;;;17.60;99.90;;;;;;5006084;28;20029;-64
2022/06/30 08:38:46;;;;;;;6.47;0.90;;;17.30;99.90;;;;;;5008427;28;20101;-64
2022/06/30 08:43:59;;;;;;;6.18;1.38;;;17.40;99.90;;;;;;5006811;28;20103;-64
2022/06/30 08:46:27;;;;;;;5.63;0.85;;;17.40;99.90;;;;;;5002633;28;20081;-64
2022/06/30 08:48:53;;;;;;;3.53;0.80;;;17.50;99.90;;;;;;5009294;28;20053;-63
2022/06/30 08:51:20;;;;;;;13.55;1.48;;;17.40;99.90;;;;;;5005731;28;20505;-67
2022/06/30 08:53:55;;;;;;;3.17;1.00;;;17.40;99.90;;;;;;5006646;28;21097;-67
2022/06/30 08:56:21;;;;;;;1.42;0.40;;;17.50;99.90;;;;;;5005322;28;20082;-65
2022/06/30 08:58:51;;;;;;;5.18;0.95;;;17.50;99.90;;;;;;5008136;28;20393;-66
2022/06/30 09:01:18;;;;;;;7.22;1.40;;;17.60;99.90;;;;;;5006076;28;20423;-66
2022/06/30 09:03:44;;;;;;;4.47;0.63;;;17.70;99.90;;;;;;5007764;28;20397;-65
2022/06/30 09:06:10;;;;;;;9.70;1.40;;;17.80;99.90;;;;;;5002994;28;20044;-67
2022/06/30 09:08:36;;;;;;;6.53;1.00;;;17.90;99.90;;;;;;5003255;28;20026;-67
2022/06/30 09:11:02;;;;;;;3.17;0.70;;;18.00;99.90;;;;;;4998343;28;20026;-64
2022/06/30 09:13:43;;;;;;;6.03;1.10;;;18.00;99.90;;;;;;5001240;28;20053;-65
2022/06/30 09:16:08;;;;;;;6.45;0.80;;;18.30;99.90;;;;;;5002809;28;20026;-65
2022/06/30 09:18:34;;;;;;;3.10;0.80;;;18.30;99.90;;;;;;5005444;28;20128;-65
2022/06/30 09:21:06;;;;;;;5.82;1.05;;;18.60;99.90;;;;;;5003330;28;20091;-65
2022/06/30 09:23:35;;;;;;;;;;;18.30;99.90;;;;;;5001789;28;20088;-65
2022/06/30 09:26:01;;;;;;;5.60;0.70;;;18.40;99.90;;;;;;4999737;28;19914;-63
2022/06/30 09:28:51;;;;;;;8.80;1.20;;;18.50;99.90;;;;;;5002194;28;20099;-65
2022/06/30 09:31:42;;;;;;;6.70;1.00;;;18.50;99.90;;;;;;5001313;28;20034;-60
2022/06/30 09:34:20;;;;;;;4.80;0.50;;;18.50;99.90;;;;;;5000226;28;20042;-65
2022/06/30 09:36:50;;;;;;;4.32;0.52;;;18.20;99.90;;;;;;4994291;28;21664;-65
2022/06/30 09:39:17;;;;;;;4.18;0.80;;;18.20;99.90;;;;;;5003946;28;20045;-65
2022/06/30 09:41:44;;;;;;;3.20;0.40;;;18.10;99.90;;;;;;5004712;28;20042;-64
2022/06/30 09:44:16;;;;;;;4.10;0.57;;;18.20;99.90;;;;;;5006747;28;20025;-66
2022/06/30 09:47:12;;;;;;;1.92;0.75;;;18.40;99.90;;;;;;5008761;28;20477;-65
2022/06/30 09:49:40;;;;;;;1.35;0.40;;;18.40;99.90;;;;;;5001041;28;20034;-65
2022/06/30 09:52:18;;;;;;;4.05;0.70;;;18.70;99.90;;;;;;5006306;28;20558;-65
2022/06/30 09:55:00;;;;;;;3.58;0.50;;;18.80;99.90;;;;;;5005012;28;20030;-65
2022/06/30 09:57:27;;;;;;;;;;;18.80;99.90;;;;;;5001142;28;20030;-65
2022/06/30 10:00:19;;;;;;;4.35;0.52;;;18.70;99.90;;;;;;5005108;28;20350;-65
2022/06/30 10:02:47;;;;;;;7.35;0.82;;;18.70;99.90;;;;;;4998298;28;20053;-65
2022/06/30 10:05:15;;;;;;;8.00;1.27;;;18.70;99.90;;;;;;5001069;28;20026;-64
2022/06/30 10:07:41;;;;;;;2.97;0.50;;;18.70;99.90;;;;;;4998767;28;20041;-65
2022/06/30 10:10:10;;;;;;;4.28;0.93;;;18.60;99.90;;;;;;5001746;28;20462;-64
2022/06/30 10:12:37;;;;;;;2.83;0.57;;;18.50;99.90;;;;;;4995577;28;20056;-64
2022/06/30 10:15:04;;;;;;;2.92;0.70;;;18.50;99.90;;;;;;5004260;28;20084;-66
2022/06/30 10:17:31;;;;;;;3.83;0.50;;;18.60;99.90;;;;;;4999830;28;20049;-66
2022/06/30 10:19:58;;;;;;;3.63;0.82;;;18.80;99.90;;;;;;5004610;28;20056;-66
2022/06/30 10:22:28;;;;;;;4.38;0.93;;;18.70;99.90;;;;;;5003339;28;20040;-65
2022/06/30 10:24:55;;;;;;;3.47;0.63;;;18.90;99.90;;;;;;5001344;28;20026;-65
2022/06/30 10:27:24;;;;;;;1.77;0.40;;;19.00;99.90;;;;;;4999306;28;20033;-64
2022/06/30 10:30:14;;;;;;;3.75;1.00;;;18.60;99.90;;;;;;5001131;28;20472;-64
2022/06/30 10:33:00;;;;;;;4.05;0.60;;;18.60;99.90;;;;;;4996125;28;20046;-64
2022/06/30 10:35:36;;;;;;;3.83;1.17;;;18.60;99.90;;;;;;5000826;28;20116;-65
2022/06/30 10:38:20;;;;;;;3.53;0.50;;;18.70;99.90;;;;;;5009075;28;20037;-65
2022/06/30 10:41:03;;;;;;;5.80;0.60;;;18.80;99.90;;;;;;5008526;28;20030;-64
2022/06/30 10:43:29;;;;;;;1.50;0.65;;;18.70;99.90;;;;;;5002241;28;20037;-64
2022/06/30 10:46:05;;;;;;;2.10;0.60;;;18.70;99.90;;;;;;5006757;28;20096;-64
2022/06/30 10:48:56;;;;;;;5.72;0.90;;;18.50;99.90;;;;;;5001032;28;20516;-64
2022/06/30 10:51:24;;;;;;;6.80;1.10;;;18.50;99.90;;;;;;5002933;28;20026;-65
2022/06/30 10:53:57;;;;;;;5.43;0.73;;;18.60;99.90;;;;;;5006814;28;20030;-65
2022/06/30 10:56:26;;;;;;;5.25;1.00;;;18.60;99.90;;;;;;5003538;28;20101;-62
2022/06/30 10:59:07;;;;;;;5.20;1.20;;;18.60;99.90;;;;;;5004590;28;20325;-62
2022/06/30 11:01:33;;;;;;;8.88;1.42;;;18.70;99.90;;;;;;5006525;28;21629;-63
2022/06/30 11:03:59;;;;;;;4.65;0.82;;;18.90;99.90;;;;;;5006173;28;20022;-64
2022/06/30 11:06:58;;;;;;;3.40;1.40;;;18.70;99.90;;;;;;5002704;28;20037;-64
2022/06/30 11:09:57;;;;;;;6.38;0.80;;;18.90;99.90;;;;;;5003885;28;20482;-62
2022/06/30 11:12:48;;;;;;;6.43;1.23;;;19.10;99.90;;;;;;4999525;28;20445;-64
2022/06/30 11:15:14;;;;;;;8.73;1.03;;;19.40;99.90;;;;;;5005856;28;20034;-64
2022/06/30 11:17:40;;;;;;;5.25;1.13;;;19.30;99.90;;;;;;5005336;28;20311;-65
2022/06/30 11:20:12;;;;;;;9.52;1.35;;;19.60;99.90;;;;;;5006385;28;20028;-64
2022/06/30 11:22:39;;;;;;;5.90;0.65;;;20.00;99.90;;;;;;5004652;28;20426;-65
2022/06/30 11:25:10;;;;;;;6.65;1.10;;;19.90;99.90;;;;;;5011890;28;20571;-63
2022/06/30 11:27:38;;;;;;;7.93;1.67;;;19.90;99.90;;;;;;5004566;28;20036;-62
2022/06/30 11:30:04;;;;;;;7.35;1.27;;;19.80;99.90;;;;;;5005243;28;20423;-63
2022/06/30 11:32:29;;;;;;;3.28;0.80;;;19.50;99.90;;;;;;5003007;28;20099;-64
2022/06/30 11:34:59;;;;;;;5.00;0.85;;;19.30;99.90;;;;;;5010206;28;20116;-64
2022/06/30 11:37:27;;;;;;;5.15;0.80;;;19.30;99.90;;;;;;5008455;28;20405;-64
2022/06/30 11:40:04;;;;;;;4.78;0.85;;;19.30;99.90;;;;;;5010328;28;20022;-63
2022/06/30 11:42:30;;;;;;;3.88;1.02;;;19.20;99.90;;;;;;5006273;28;20045;-65
2022/06/30 11:44:56;;;;;;;4.20;1.00;;;19.20;99.90;;;;;;5009211;28;20026;-65
2022/06/30 11:47:23;;;;;;;7.07;1.30;;;19.60;99.90;;;;;;5005803;28;20087;-64
2022/06/30 11:49:58;;;;;;;5.15;0.85;;;20.00;99.90;;;;;;5007307;28;20390;-65
2022/06/30 11:52:31;;;;;;;7.15;1.13;;;20.30;99.90;;;;;;5001814;28;20021;-63
2022/06/30 11:55:14;;;;;;;8.50;2.05;;;20.00;99.90;;;;;;5005941;28;20394;-64
2022/06/30 11:57:46;;;;;;;9.77;1.05;;;19.70;99.90;;;;;;5005011;28;20042;-63
2022/06/30 12:00:18;;;;;;;8.15;1.50;;;19.90;99.90;;;;;;5005500;28;20022;-64
2022/06/30 12:02:45;;;;;;;4.40;0.95;;;20.00;99.90;;;;;;5005754;28;20042;-63
2022/06/30 12:05:14;;;;;;;5.90;0.77;;;19.90;99.90;;;;;;5009832;28;20101;-64
2022/06/30 12:07:41;;;;;;;4.63;1.10;;;20.00;99.90;;;;;;5006526;28;20377;-63
2022/06/30 12:10:09;;;;;;;4.70;1.45;;;19.80;99.90;;;;;;5009694;28;20462;-67
2022/06/30 12:12:36;;;;;;;5.93;0.80;;;19.90;99.90;;;;;;5003537;28;20038;-64
2022/06/30 12:15:08;;;;;;;4.18;1.02;;;19.60;99.90;;;;;;5007330;28;20521;-65
2022/06/30 12:17:39;;;;;;;6.07;1.02;;;19.40;99.90;;;;;;5008197;28;20038;-64
2022/06/30 12:20:08;;;;;;;5.75;0.82;;;19.10;99.90;;;;;;5010021;28;20607;-64
2022/06/30 12:22:38;;;;;;;5.03;0.90;;;19.00;99.90;;;;;;4999739;28;20124;-63
2022/06/30 12:25:05;;;;;;;8.82;1.52;;;19.00;99.90;;;;;;5005662;28;20926;-63
2022/06/30 12:27:41;;;;;;;6.18;1.55;;;19.20;99.90;;;;;;4992001;28;20513;-63
2022/06/30 12:30:13;;;;;;;4.07;0.65;;;19.20;99.90;;;;;;5001767;28;20033;-60
2022/06/30 12:32:39;;;;;;;;;;;19.60;99.90;;;;;;4994597;28;20166;-64
2022/06/30 12:35:11;;;;;;;4.90;0.70;;;19.90;99.90;;;;;;5004796;28;20047;-63
2022/06/30 12:37:39;;;;;;;6.13;0.90;;;20.20;99.90;;;;;;5004011;28;20787;-63
2022/06/30 12:40:09;;;;;;;6.93;0.75;;;20.20;99.90;;;;;;5006227;28;20505;-63
2022/06/30 12:42:44;;;;;;;5.03;0.88;;;20.20;99.90;;;;;;5003772;28;20041;-63
2022/06/30 12:45:34;;;;;;;5.65;0.98;;;20.20;99.90;;;;;;5004963;28;20033;-63
2022/06/30 12:48:01;;;;;;;5.15;0.98;;;20.20;99.90;;;;;;5003251;28;20037;-64
2022/06/30 12:50:27;;;;;;;6.78;2.33;;;19.90;99.90;;;;;;5002176;28;20030;-63
2022/06/30 12:52:52;;;;;;;5.90;1.50;;;19.60;99.90;;;;;;5003364;28;20029;-63
2022/06/30 12:55:18;;;;;;;5.22;1.52;;;19.60;99.90;;;;;;5003486;28;20033;-61
2022/06/30 12:57:48;;;;;;;6.18;1.60;;;19.80;99.90;;;;;;5002673;28;20042;-63
2022/06/30 13:00:15;;;;;;;4.68;0.95;;;20.50;99.90;;;;;;5005026;28;20363;-63
2022/06/30 13:02:40;;;;;;;4.28;0.70;;;20.90;99.90;;;;;;4999612;28;20069;-62
2022/06/30 13:05:13;;;;;;;2.25;0.60;;;21.00;99.90;;;;;;4998511;28;20116;-64